Kanaranzi, Minnesota
Current Conditions -  °F | °C
As of 12:55 PM on Wednesday 26 Nov 2014 (Local Time) from KLYV Reporting Station
Scattered Clouds Scattered Clouds  
Wind Chill: 12°   Ceiling: Unl
Heat Index: 23°   Visibility: 10mi
Dew Point: 18°   Wind: 12mph
Humidity: 80%   Direction: 20°NNE
Pressure: 30.21"   Gusts: 22mph
Location:  43.58°N, 96.1°W
Report Text: KLYV 261855Z AUTO 02010G19KT 10SM SCT013 M05/M08 A3021 RMK AO2
Loading
Personal Weather Stations






























Interactive Weather Map New forecast layout! Learn more

10-Day Weather Forecast

Advertisements
Track Severe Weather on mobile